createdAt,value
2023-05-10T00:01:01.018Z,1.10
2023-05-10T00:03:27.905Z,1.10
2023-05-10T00:05:54.801Z,1.10
2023-05-10T00:08:21.511Z,1.10
2023-05-10T00:10:48.467Z,1.02
2023-05-10T00:13:15.272Z,1.10
2023-05-10T00:15:42.419Z,1.15
2023-05-10T00:18:09.123Z,1.13
2023-05-10T00:20:35.886Z,1.20
2023-05-10T00:23:02.610Z,1.08
2023-05-10T00:25:29.270Z,1.10
2023-05-10T00:27:59.440Z,1.00
2023-05-10T00:30:26.113Z,1.20
2023-05-10T00:32:52.938Z,1.10
2023-05-10T00:35:19.982Z,1.30
2023-05-10T00:37:48.693Z,1.15
2023-05-10T00:40:15.712Z,1.10
2023-05-10T00:42:45.867Z,1.10
2023-05-10T00:45:12.706Z,1.10
2023-05-10T00:47:39.827Z,1.15
2023-05-10T00:50:07.594Z,0.90
2023-05-10T00:52:34.419Z,0.90
2023-05-10T00:55:01.404Z,1.00
2023-05-10T00:57:28.394Z,1.00
2023-05-10T00:59:55.206Z,1.10
2023-05-10T01:02:22.245Z,1.10
2023-05-10T01:04:50.506Z,1.00
2023-05-10T01:07:17.959Z,1.10
2023-05-10T01:09:44.783Z,1.00
2023-05-10T01:12:12.546Z,1.00
2023-05-10T01:14:39.939Z,1.00
2023-05-10T01:17:11.989Z,1.20
2023-05-10T01:19:39.370Z,1.10
2023-05-10T01:22:31.976Z,1.10
2023-05-10T01:25:16.400Z,1.00
2023-05-10T01:28:00.473Z,1.05
2023-05-10T01:31:03.550Z,1.20
2023-05-10T01:33:41.363Z,1.30
2023-05-10T01:36:26.962Z,1.10
2023-05-10T01:39:00.227Z,1.10
2023-05-10T01:41:40.934Z,1.20
2023-05-10T01:44:32.396Z,1.20
2023-05-10T01:47:05.458Z,1.10
2023-05-10T01:49:36.530Z,1.08
2023-05-10T01:52:13.859Z,1.10
2023-05-10T01:54:46.120Z,1.10
2023-05-10T01:57:15.404Z,1.20
2023-05-10T01:59:46.413Z,1.05
2023-05-10T02:02:15.965Z,1.10
2023-05-10T02:04:44.564Z,1.20
2023-05-10T02:07:12.600Z,1.27
2023-05-10T02:09:39.903Z,1.17
2023-05-10T02:12:07.860Z,1.20
2023-05-10T02:14:37.994Z,1.30
2023-05-10T02:17:07.106Z,1.27
2023-05-10T02:19:35.448Z,1.20
2023-05-10T02:22:04.352Z,1.40
2023-05-10T02:24:34.737Z,1.20
2023-05-10T02:27:04.634Z,1.30
2023-05-10T02:29:33.456Z,1.40
2023-05-10T02:32:01.243Z,1.30
2023-05-10T02:34:28.885Z,1.30
2023-05-10T02:36:57.243Z,1.58
2023-05-10T02:39:25.809Z,1.50
2023-05-10T02:41:54.587Z,1.50
2023-05-10T02:44:23.388Z,1.55
2023-05-10T02:46:50.588Z,1.60
2023-05-10T02:49:17.544Z,1.33
2023-05-10T02:51:52.538Z,1.58
2023-05-10T02:54:21.359Z,1.60
2023-05-10T02:57:01.497Z,1.55
2023-05-10T02:59:28.459Z,1.80
2023-05-10T03:01:55.263Z,1.85
2023-05-10T03:04:22.055Z,1.60
2023-05-10T03:06:49.033Z,1.90
2023-05-10T03:09:16.718Z,1.70
2023-05-10T03:12:04.958Z,1.75
2023-05-10T03:15:06.842Z,1.80
2023-05-10T03:17:47.753Z,1.92
2023-05-10T03:20:27.250Z,1.70
2023-05-10T03:23:06.358Z,1.70
2023-05-10T03:25:34.403Z,1.80
2023-05-10T03:28:05.763Z,1.92
2023-05-10T03:30:34.553Z,2.00
2023-05-10T03:33:08.356Z,2.35
2023-05-10T03:35:39.842Z,3.92
2023-05-10T03:38:06.987Z,4.15
2023-05-10T03:40:33.950Z,4.00
2023-05-10T03:43:00.788Z,3.97
2023-05-10T03:45:28.350Z,3.10
2023-05-10T03:47:55.295Z,2.60
2023-05-10T03:50:22.420Z,2.72
2023-05-10T03:52:49.299Z,2.67
2023-05-10T03:55:16.339Z,2.28
2023-05-10T03:57:43.375Z,2.45
2023-05-10T04:00:11.145Z,2.38
2023-05-10T04:02:44.021Z,2.20
2023-05-10T04:05:17.723Z,2.13
2023-05-10T04:07:45.552Z,2.30
2023-05-10T04:10:12.987Z,1.75
2023-05-10T04:12:39.760Z,1.60
2023-05-10T04:15:07.931Z,1.40
2023-05-10T04:17:35.023Z,1.50
2023-05-10T04:20:02.160Z,1.35
2023-05-10T04:22:30.066Z,1.23
2023-05-10T04:24:57.196Z,1.30
2023-05-10T04:27:24.563Z,1.40
2023-05-10T04:29:51.992Z,1.40
2023-05-10T04:32:18.929Z,1.40
2023-05-10T04:34:45.937Z,1.48
2023-05-10T04:37:12.935Z,1.65
2023-05-10T04:39:42.058Z,1.67
2023-05-10T04:42:09.729Z,1.48
2023-05-10T04:44:37.367Z,1.80
2023-05-10T04:47:04.389Z,1.70
2023-05-10T04:49:42.805Z,1.80
2023-05-10T04:52:09.877Z,1.92
2023-05-10T04:54:36.744Z,1.80
2023-05-10T04:57:03.721Z,1.90
2023-05-10T04:59:33.547Z,1.88
2023-05-10T05:02:00.373Z,1.60
2023-05-10T05:04:31.272Z,1.70
2023-05-10T05:06:58.050Z,1.70
2023-05-10T05:09:24.736Z,1.40
2023-05-10T05:11:51.514Z,1.40
2023-05-10T05:14:18.365Z,1.30
2023-05-10T05:16:45.259Z,1.30
2023-05-10T05:19:15.304Z,1.30
2023-05-10T05:21:42.163Z,1.25
2023-05-10T05:24:09.569Z,1.30
2023-05-10T05:26:36.388Z,1.35
2023-05-10T05:29:03.815Z,1.20
2023-05-10T05:31:30.708Z,1.30
2023-05-10T05:33:57.486Z,1.33
2023-05-10T05:36:24.297Z,1.40
2023-05-10T05:38:51.000Z,1.30
2023-05-10T05:41:17.972Z,1.40
2023-05-10T05:43:44.719Z,1.10
2023-05-10T05:46:11.600Z,1.02
2023-05-10T05:48:38.368Z,1.10
2023-05-10T05:51:07.188Z,1.20
2023-05-10T05:53:34.156Z,1.23
2023-05-10T05:56:01.068Z,1.30
2023-05-10T05:58:27.926Z,1.30
2023-05-10T06:00:55.084Z,1.10
2023-05-10T06:03:22.085Z,1.20
2023-05-10T06:05:49.307Z,1.30
2023-05-10T06:08:16.373Z,1.40
2023-05-10T06:10:43.239Z,1.48
2023-05-10T06:13:10.080Z,1.25
2023-05-10T06:15:37.130Z,1.40
2023-05-10T06:18:04.467Z,1.20
2023-05-10T06:20:32.520Z,1.20
2023-05-10T06:22:59.711Z,1.30
2023-05-10T06:25:26.616Z,1.20
2023-05-10T06:27:58.025Z,1.20
2023-05-10T06:30:29.870Z,1.00
2023-05-10T06:32:57.490Z,1.20
2023-05-10T06:35:24.586Z,1.27
2023-05-10T06:37:51.829Z,1.30
2023-05-10T06:40:19.127Z,1.20
2023-05-10T06:42:46.760Z,1.30
2023-05-10T06:45:14.514Z,1.10
2023-05-10T06:47:42.211Z,1.17
2023-05-10T06:50:09.848Z,1.20
2023-05-10T06:52:36.622Z,1.30
2023-05-10T06:55:04.554Z,1.00
2023-05-10T06:57:32.320Z,0.90
2023-05-10T07:00:00.413Z,0.90
2023-05-10T07:02:27.264Z,0.82
2023-05-10T07:04:54.269Z,0.98
2023-05-10T07:07:21.360Z,0.90
2023-05-10T07:09:48.311Z,0.80
2023-05-10T07:12:16.009Z,0.90
2023-05-10T07:14:43.501Z,1.00
2023-05-10T07:17:10.929Z,0.88
2023-05-10T07:19:37.777Z,1.00
2023-05-10T07:22:05.846Z,0.90
2023-05-10T07:24:34.092Z,0.77
2023-05-10T07:27:01.105Z,0.88
2023-05-10T07:29:28.040Z,0.80
2023-05-10T07:31:57.865Z,0.80
2023-05-10T07:34:25.608Z,0.82
2023-05-10T07:36:52.737Z,0.80
2023-05-10T07:39:26.486Z,0.90
2023-05-10T07:41:54.661Z,0.82
2023-05-10T07:44:21.493Z,0.70
2023-05-10T07:46:49.046Z,0.80
2023-05-10T07:49:15.891Z,0.80
2023-05-10T07:51:43.498Z,0.73
2023-05-10T07:54:10.573Z,0.80
2023-05-10T07:56:37.401Z,0.80
2023-05-10T07:59:09.272Z,0.80
2023-05-10T08:01:37.595Z,0.77
2023-05-10T08:04:04.498Z,0.70
2023-05-10T08:06:31.521Z,0.73
2023-05-10T08:08:58.391Z,0.70
2023-05-10T08:11:25.826Z,0.70
2023-05-10T08:13:52.785Z,0.80
2023-05-10T08:16:19.901Z,0.70
2023-05-10T08:18:48.301Z,0.93
2023-05-10T08:21:15.535Z,0.80
2023-05-10T08:23:44.615Z,0.70
2023-05-10T08:26:11.787Z,0.90
2023-05-10T08:28:38.631Z,0.70
2023-05-10T08:31:06.125Z,0.70
2023-05-10T08:33:33.041Z,0.68
2023-05-10T08:35:59.737Z,0.80
2023-05-10T08:38:27.010Z,0.80
2023-05-10T08:40:58.071Z,0.80
2023-05-10T08:43:31.773Z,0.80
2023-05-10T08:46:03.932Z,0.70
2023-05-10T08:48:32.017Z,0.90
2023-05-10T08:51:01.822Z,0.70
2023-05-10T08:55:58.674Z,0.90
2023-05-10T08:58:26.334Z,0.77
2023-05-10T09:00:54.452Z,0.80
2023-05-10T09:03:21.297Z,0.70
2023-05-10T09:05:49.878Z,0.70
2023-05-10T09:08:17.942Z,0.70
2023-05-10T09:10:45.740Z,0.70
2023-05-10T09:13:12.942Z,0.70
2023-05-10T09:15:39.917Z,0.70
2023-05-10T09:18:06.945Z,0.70
2023-05-10T09:20:33.788Z,0.88
2023-05-10T09:23:00.602Z,0.70
2023-05-10T09:25:28.293Z,0.80
2023-05-10T09:27:56.073Z,0.70
2023-05-10T09:30:30.393Z,0.65
2023-05-10T09:32:59.007Z,0.70
2023-05-10T09:35:29.764Z,0.63
2023-05-10T09:38:00.358Z,0.70
2023-05-10T09:40:29.057Z,0.60
2023-05-10T09:43:01.735Z,0.68
2023-05-10T09:45:32.576Z,0.60
2023-05-10T09:48:01.680Z,0.73
2023-05-10T09:50:29.553Z,0.70
2023-05-10T09:53:02.267Z,0.75
2023-05-10T09:55:45.846Z,0.80
2023-05-10T09:58:16.475Z,0.70
2023-05-10T10:00:45.563Z,0.70
2023-05-10T10:03:22.354Z,0.65
2023-05-10T10:05:50.137Z,0.80
2023-05-10T10:08:18.661Z,0.90
2023-05-10T10:10:46.999Z,0.83
2023-05-10T10:13:14.707Z,0.93
2023-05-10T10:15:43.106Z,0.70
2023-05-10T10:18:14.001Z,0.73
2023-05-10T10:20:41.529Z,0.70
2023-05-10T10:23:09.560Z,0.80
2023-05-10T10:25:36.837Z,0.82
2023-05-10T10:28:48.375Z,0.65
2023-05-10T10:31:25.742Z,0.75
2023-05-10T10:34:00.843Z,0.70
2023-05-10T10:36:31.349Z,0.70
2023-05-10T10:39:02.506Z,0.85
2023-05-10T10:41:44.944Z,0.80
2023-05-10T10:44:27.019Z,0.60
2023-05-10T10:47:30.931Z,0.63
2023-05-10T10:50:06.184Z,0.75
2023-05-10T10:52:43.412Z,0.60
2023-05-10T10:55:20.199Z,0.60
2023-05-10T10:58:01.451Z,0.50
2023-05-10T11:00:33.540Z,0.60
2023-05-10T11:03:03.525Z,0.60
2023-05-10T11:05:30.362Z,0.60
2023-05-10T11:07:58.808Z,0.60
2023-05-10T11:13:10.274Z,0.80
2023-05-10T11:15:39.573Z,0.70
2023-05-10T11:18:28.478Z,0.60
2023-05-10T11:21:06.340Z,0.77
2023-05-10T11:23:48.736Z,0.70
2023-05-10T11:26:15.727Z,0.70
2023-05-10T11:28:47.107Z,0.77
2023-05-10T11:31:18.552Z,0.70
2023-05-10T11:33:51.062Z,0.70
2023-05-10T11:36:21.099Z,0.70
2023-05-10T11:38:49.057Z,0.60
2023-05-10T11:41:19.922Z,0.80
2023-05-10T11:43:49.892Z,0.77
2023-05-10T11:46:19.486Z,0.82
2023-05-10T11:48:46.322Z,0.68
2023-05-10T11:51:13.127Z,0.87
2023-05-10T11:53:39.990Z,0.77
2023-05-10T11:56:10.889Z,0.70
2023-05-10T11:58:39.443Z,0.70
2023-05-10T12:01:08.333Z,0.70
2023-05-10T12:03:35.518Z,0.73
2023-05-10T12:06:03.772Z,0.90
2023-05-10T12:08:31.947Z,0.73
2023-05-10T12:11:11.469Z,0.80
2023-05-10T12:13:42.390Z,0.80
2023-05-10T12:16:18.269Z,0.70
2023-05-10T12:18:46.782Z,0.90
2023-05-10T12:21:14.257Z,0.85
2023-05-10T12:23:41.398Z,0.77
2023-05-10T12:26:11.085Z,0.85
2023-05-10T12:28:38.756Z,1.00
2023-05-10T12:31:07.130Z,0.90
2023-05-10T12:33:45.553Z,0.80
2023-05-10T12:36:14.260Z,0.75
2023-05-10T12:38:48.656Z,0.73
2023-05-10T12:41:19.618Z,0.80
2023-05-10T12:43:47.357Z,0.73
2023-05-10T12:48:43.678Z,0.80
2023-05-10T12:51:12.836Z,0.80
2023-05-10T12:53:45.025Z,0.70
2023-05-10T12:56:12.913Z,0.80
2023-05-10T12:58:39.837Z,0.88
2023-05-10T13:01:07.002Z,0.70
2023-05-10T13:03:33.991Z,0.60
2023-05-10T13:06:02.998Z,0.80
2023-05-10T13:08:34.123Z,0.60
2023-05-10T13:11:02.152Z,0.73
2023-05-10T13:13:29.168Z,0.63
2023-05-10T13:15:55.896Z,0.70
2023-05-10T13:18:22.746Z,0.60
2023-05-10T13:20:50.664Z,0.60
2023-05-10T13:23:20.384Z,0.80
2023-05-10T13:25:47.282Z,0.70
2023-05-10T13:28:14.016Z,0.80
2023-05-10T13:30:40.692Z,0.75
2023-05-10T13:33:07.397Z,0.63
2023-05-10T13:35:34.189Z,0.60
2023-05-10T13:38:00.870Z,0.70
2023-05-10T13:40:27.624Z,0.88
2023-05-10T13:42:54.489Z,0.70
2023-05-10T13:45:21.809Z,0.80
2023-05-10T13:47:48.687Z,0.90
2023-05-10T13:50:15.517Z,0.80
2023-05-10T13:52:42.305Z,0.90
2023-05-10T13:55:09.365Z,0.80
2023-05-10T13:57:37.139Z,0.80
2023-05-10T14:00:04.659Z,0.90
2023-05-10T14:02:35.621Z,0.90
2023-05-10T14:05:02.626Z,0.80
2023-05-10T14:07:29.394Z,0.90
2023-05-10T14:09:56.194Z,0.80
2023-05-10T14:12:23.077Z,0.75
2023-05-10T14:14:50.050Z,0.85
2023-05-10T14:17:17.179Z,0.90
2023-05-10T14:19:44.259Z,0.85
2023-05-10T14:22:11.302Z,0.80
2023-05-10T14:24:39.128Z,0.90
2023-05-10T14:27:06.926Z,0.93
2023-05-10T14:29:33.969Z,0.88
2023-05-10T14:32:00.835Z,0.85
2023-05-10T14:34:27.593Z,0.80
2023-05-10T14:36:54.246Z,0.90
2023-05-10T14:39:21.173Z,0.95
2023-05-10T14:41:48.387Z,1.00
2023-05-10T14:44:16.415Z,0.80
2023-05-10T14:46:43.510Z,0.95
2023-05-10T14:49:10.327Z,0.98
2023-05-10T14:51:37.871Z,0.80
2023-05-10T14:54:05.059Z,0.82
2023-05-10T14:56:33.310Z,0.90
2023-05-10T14:59:01.268Z,0.90
2023-05-10T15:01:29.327Z,0.80
2023-05-10T15:03:56.954Z,1.00
2023-05-10T15:06:31.504Z,0.90
2023-05-10T15:08:58.458Z,1.00
2023-05-10T15:11:25.506Z,1.13
2023-05-10T15:13:52.705Z,1.10
2023-05-10T15:16:20.014Z,0.90
2023-05-10T15:18:46.829Z,1.08
2023-05-10T15:21:13.684Z,1.15
2023-05-10T15:23:40.750Z,1.15
2023-05-10T15:26:07.550Z,1.00
2023-05-10T15:28:34.555Z,1.00
2023-05-10T15:31:01.689Z,1.00
2023-05-10T15:33:28.537Z,1.00
2023-05-10T15:35:55.742Z,1.00
2023-05-10T15:38:22.562Z,1.00
2023-05-10T15:40:49.382Z,1.00
2023-05-10T15:43:17.341Z,1.05
2023-05-10T15:45:44.471Z,1.00
2023-05-10T15:48:11.599Z,1.05
2023-05-10T15:50:38.514Z,1.13
2023-05-10T15:53:05.715Z,1.10
2023-05-10T15:55:32.483Z,1.10
2023-05-10T15:57:59.574Z,1.10
2023-05-10T16:00:26.753Z,0.98
2023-05-10T16:02:54.410Z,1.00
2023-05-10T16:05:22.298Z,1.00
2023-05-10T16:07:49.628Z,1.00
2023-05-10T16:10:16.812Z,1.00
2023-05-10T16:12:43.757Z,0.95
2023-05-10T16:15:11.142Z,1.00
2023-05-10T16:17:38.196Z,1.00
2023-05-10T16:20:05.898Z,1.10
2023-05-10T16:22:32.835Z,1.10
2023-05-10T16:24:59.870Z,3.45
2023-05-10T16:27:28.750Z,1.00
2023-05-10T16:29:56.090Z,0.93
2023-05-10T16:32:23.039Z,1.30
2023-05-10T16:34:50.385Z,0.90
2023-05-10T16:37:17.563Z,1.05
2023-05-10T16:39:44.390Z,1.10
2023-05-10T16:42:11.582Z,1.27
2023-05-10T16:44:38.621Z,1.00
2023-05-10T16:47:05.597Z,1.08
2023-05-10T16:49:32.402Z,1.20
2023-05-10T16:52:00.575Z,1.00
2023-05-10T16:54:28.869Z,0.90
2023-05-10T16:57:29.775Z,1.10
2023-05-10T16:59:49.371Z,1.00
2023-05-10T17:02:16.970Z,1.00
2023-05-10T17:04:44.266Z,1.10
2023-05-10T17:07:13.135Z,1.20
2023-05-10T17:09:42.045Z,0.95
2023-05-10T17:12:15.096Z,1.00
2023-05-10T17:14:42.176Z,1.10
2023-05-10T17:17:09.486Z,1.00
2023-05-10T17:19:36.576Z,1.10
2023-05-10T17:22:03.547Z,1.20
2023-05-10T17:24:31.156Z,1.00
2023-05-10T17:26:58.372Z,1.17
2023-05-10T17:29:25.428Z,1.27
2023-05-10T17:31:52.723Z,1.10
2023-05-10T17:34:19.777Z,1.10
2023-05-10T17:36:46.793Z,1.20
2023-05-10T17:39:13.655Z,1.15
2023-05-10T17:41:41.257Z,1.20
2023-05-10T17:44:08.481Z,1.10
2023-05-10T17:46:35.645Z,1.17
2023-05-10T17:49:02.787Z,1.05
2023-05-10T17:51:30.074Z,1.10
2023-05-10T17:53:57.119Z,1.10
2023-05-10T17:56:24.452Z,1.10
2023-05-10T17:58:51.509Z,1.20
2023-05-10T18:01:18.812Z,1.20
2023-05-10T18:03:46.339Z,1.30
2023-05-10T18:06:14.482Z,1.17
2023-05-10T18:08:41.885Z,1.17
2023-05-10T18:11:08.854Z,1.10
2023-05-10T18:13:36.489Z,1.40
2023-05-10T18:16:06.141Z,1.48
2023-05-10T18:18:33.340Z,1.30
2023-05-10T18:21:00.863Z,1.30
2023-05-10T18:23:27.747Z,1.48
2023-05-10T18:25:54.710Z,1.60
2023-05-10T18:28:22.483Z,1.55
2023-05-10T18:30:51.923Z,1.98
2023-05-10T18:33:19.004Z,1.60
2023-05-10T18:35:47.359Z,1.40
2023-05-10T18:38:14.429Z,1.50
2023-05-10T18:40:44.132Z,2.10
2023-05-10T18:43:12.717Z,1.70
2023-05-10T18:45:49.319Z,1.60
2023-05-10T18:48:22.925Z,1.73
2023-05-10T18:50:56.288Z,1.95
2023-05-10T18:53:23.831Z,1.90
2023-05-10T18:56:02.921Z,2.10
2023-05-10T18:58:30.620Z,2.00
2023-05-10T19:00:59.028Z,2.30
2023-05-10T19:03:26.183Z,2.30
2023-05-10T19:05:53.348Z,2.40
2023-05-10T19:08:22.745Z,2.30
2023-05-10T19:10:49.995Z,2.10
2023-05-10T19:13:16.990Z,2.20
2023-05-10T19:15:47.342Z,2.35
2023-05-10T19:18:16.533Z,2.50
2023-05-10T19:20:46.896Z,2.00
2023-05-10T19:23:16.550Z,2.47
2023-05-10T19:25:44.892Z,2.10
2023-05-10T19:28:13.076Z,2.30
2023-05-10T19:30:43.090Z,2.20
2023-05-10T19:36:00.723Z,2.60
2023-05-10T19:38:36.288Z,2.58
2023-05-10T19:41:11.649Z,2.58
2023-05-10T19:44:14.384Z,2.45
2023-05-10T19:46:47.348Z,2.70
2023-05-10T19:49:14.543Z,2.78
2023-05-10T19:51:41.417Z,2.50
2023-05-10T19:54:08.452Z,2.50
2023-05-10T19:56:38.023Z,2.60
2023-05-10T19:59:08.184Z,2.72
2023-05-10T20:04:29.823Z,2.60
2023-05-10T20:07:00.240Z,2.72
2023-05-10T20:09:31.366Z,2.90
2023-05-10T20:11:59.500Z,2.90
2023-05-10T20:14:26.312Z,3.08
2023-05-10T20:16:53.128Z,3.15
2023-05-10T20:19:19.977Z,3.20
2023-05-10T20:21:46.862Z,3.08
2023-05-10T20:24:13.792Z,3.08
2023-05-10T20:26:40.952Z,3.35
2023-05-10T20:29:09.347Z,3.30
2023-05-10T20:31:37.404Z,3.10
2023-05-10T20:34:04.745Z,3.30
2023-05-10T20:36:31.978Z,3.90
2023-05-10T20:39:07.898Z,3.60
2023-05-10T20:41:34.906Z,3.35
2023-05-10T20:44:02.137Z,3.75
2023-05-10T20:46:30.335Z,3.85
2023-05-10T20:48:57.985Z,4.10
2023-05-10T20:51:25.027Z,3.22
2023-05-10T20:53:51.925Z,3.60
2023-05-10T20:56:19.670Z,2.95
2023-05-10T20:58:46.548Z,3.40
2023-05-10T21:01:13.543Z,2.90
2023-05-10T21:03:40.399Z,3.08
2023-05-10T21:06:07.182Z,2.92
2023-05-10T21:08:33.964Z,2.88
2023-05-10T21:11:04.733Z,3.15
2023-05-10T21:13:33.017Z,2.90
2023-05-10T21:15:59.853Z,3.10
2023-05-10T21:18:26.760Z,3.30
2023-05-10T21:20:53.691Z,3.15
2023-05-10T21:23:20.445Z,3.00
2023-05-10T21:25:47.251Z,3.03
2023-05-10T21:28:14.133Z,3.08
2023-05-10T21:30:41.224Z,2.92
2023-05-10T21:33:08.051Z,2.80
2023-05-10T21:35:34.980Z,2.92
2023-05-10T21:38:01.754Z,2.92
2023-05-10T21:40:28.864Z,2.80
2023-05-10T21:42:55.559Z,2.83
2023-05-10T21:45:22.537Z,2.97
2023-05-10T21:47:49.471Z,2.90
2023-05-10T21:50:16.412Z,2.70
2023-05-10T21:52:46.001Z,2.90
2023-05-10T21:55:12.865Z,2.53
2023-05-10T21:57:39.817Z,2.80
2023-05-10T22:00:07.564Z,2.70
2023-05-10T22:02:34.298Z,2.90
2023-05-10T22:05:02.047Z,2.80
2023-05-10T22:07:30.341Z,2.80
2023-05-10T22:09:57.128Z,3.00
2023-05-10T22:12:24.008Z,2.85
2023-05-10T22:14:59.517Z,2.90
2023-05-10T22:17:38.256Z,2.75
2023-05-10T22:20:09.321Z,3.10
2023-05-10T22:22:36.808Z,2.70
2023-05-10T22:25:07.865Z,3.10
2023-05-10T22:27:35.073Z,3.05
2023-05-10T22:30:02.179Z,3.10
2023-05-10T22:32:29.064Z,3.05
2023-05-10T22:34:55.771Z,3.05
2023-05-10T22:37:22.583Z,3.00
2023-05-10T22:39:49.823Z,2.83
2023-05-10T22:42:16.618Z,3.00
2023-05-10T22:44:44.279Z,2.97
2023-05-10T22:47:11.077Z,3.00
2023-05-10T22:49:37.797Z,3.00
2023-05-10T22:52:04.589Z,2.80
2023-05-10T22:54:31.289Z,2.63
2023-05-10T22:56:58.116Z,2.50
2023-05-10T22:59:25.012Z,2.33
2023-05-10T23:01:51.754Z,2.70
2023-05-10T23:04:18.448Z,2.50
2023-05-10T23:06:46.378Z,2.40
2023-05-10T23:09:13.154Z,2.22
2023-05-10T23:11:39.951Z,2.40
2023-05-10T23:14:06.724Z,2.50
2023-05-10T23:16:33.444Z,2.60
2023-05-10T23:19:03.142Z,2.50
2023-05-10T23:21:31.985Z,2.70
2023-05-10T23:23:59.160Z,2.75
2023-05-10T23:26:25.917Z,2.40
2023-05-10T23:28:52.740Z,2.70
2023-05-10T23:31:19.500Z,2.80
2023-05-10T23:33:46.186Z,2.75
2023-05-10T23:36:13.016Z,2.38
2023-05-10T23:38:39.715Z,2.40
2023-05-10T23:41:06.437Z,2.55
2023-05-10T23:43:33.149Z,2.60
2023-05-10T23:45:59.920Z,2.55
2023-05-10T23:48:26.753Z,2.60
2023-05-10T23:50:53.655Z,2.45
2023-05-10T23:53:20.500Z,2.45
2023-05-10T23:55:47.373Z,2.60
2023-05-10T23:58:14.177Z,2.67
